Time;durP1;ratioP1;P1;durP2;ratioP2;P2;SDS_P1;SDS_P2;PMS_P1;PMS_P2;Temp;Humidity;BMP_temperature;BMP_pressure;BME280_temperature;BME280_humidity;BME280_pressure;Samples;Min_cycle;Max_cycle;Signal;HPM_P1;HPM_P2
2023/05/29 00:01:44;;;;;;;4.32;2.22;;;;;;;14.14;62.26;98640.59;4486396;32;20445;-65
2023/05/29 00:04:12;;;;;;;5.85;2.72;;;;;;;14.06;62.54;98638.78;4486146;32;20143;-65
2023/05/29 00:06:40;;;;;;;6.10;2.50;;;;;;;14.07;62.17;98645.72;4486141;32;20111;-65
2023/05/29 00:09:08;;;;;;;4.78;2.33;;;;;;;14.11;62.10;98643.56;4486270;31;20473;-65
2023/05/29 00:11:35;;;;;;;6.10;2.78;;;;;;;14.14;62.63;98643.25;4484922;32;20123;-65
2023/05/29 00:14:02;;;;;;;6.93;2.80;;;;;;;14.22;61.73;98645.06;4471818;32;20104;-65
2023/05/29 00:16:30;;;;;;;4.72;2.40;;;;;;;14.27;61.77;98640.12;4482255;32;20123;-65
2023/05/29 00:18:57;;;;;;;5.28;2.75;;;;;;;14.28;62.05;98637.34;4486154;32;20171;-65
2023/05/29 00:21:25;;;;;;;7.78;2.28;;;;;;;14.30;62.42;98638.00;4486025;31;20099;-65
2023/05/29 00:23:52;;;;;;;4.75;2.22;;;;;;;14.28;63.25;98639.97;4485901;32;20130;-65
2023/05/29 00:26:21;;;;;;;5.80;2.70;;;;;;;14.27;61.99;98640.12;4485911;31;20562;-65
2023/05/29 00:28:50;;;;;;;4.32;2.45;;;;;;;14.27;61.46;98635.69;4485900;31;20085;-65
2023/05/29 00:31:17;;;;;;;5.62;2.33;;;;;;;14.35;60.27;98646.25;4485790;31;20566;-65
2023/05/29 00:33:45;;;;;;;5.25;2.47;;;;;;;14.39;60.79;98641.47;4485802;32;20110;-65
2023/05/29 00:36:12;;;;;;;7.93;2.30;;;;;;;14.41;60.12;98643.94;4485696;31;20077;-65
2023/05/29 00:38:40;;;;;;;3.78;2.08;;;;;;;14.42;59.92;98646.41;4485895;32;20160;-65
2023/05/29 00:41:08;;;;;;;4.53;2.03;;;;;;;14.42;60.36;98632.41;4485619;32;20208;-65
2023/05/29 00:43:35;;;;;;;11.52;2.40;;;;;;;14.38;61.38;98630.09;4486011;31;20084;-65
2023/05/29 00:46:04;;;;;;;7.05;3.90;;;;;;;14.42;61.54;98638.50;4485686;31;20089;-65
2023/05/29 00:48:31;;;;;;;5.35;2.72;;;;;;;14.43;61.15;98634.03;4484339;32;20494;-65
2023/05/29 00:50:59;;;;;;;5.10;2.60;;;;;;;14.42;61.48;98632.41;4484605;32;20096;-65
2023/05/29 00:53:27;;;;;;;7.87;3.25;;;;;;;14.55;64.59;98638.00;4484302;32;20092;-65
2023/05/29 00:55:54;;;;;;;5.82;2.42;;;;;;;14.49;62.54;98636.84;4485792;31;20084;-65
2023/05/29 00:58:21;;;;;;;6.30;2.58;;;;;;;14.64;63.22;98639.69;4485674;31;20128;-65
2023/05/29 01:00:50;;;;;;;4.95;2.85;;;;;;;14.69;61.37;98639.19;4484105;32;20107;-65
2023/05/29 01:03:18;;;;;;;5.95;2.55;;;;;;;14.60;63.36;98630.41;4484730;32;20364;-65
2023/05/29 01:05:46;;;;;;;6.95;2.42;;;;;;;14.60;63.03;98632.22;4484443;32;20110;-65
2023/05/29 01:08:14;;;;;;;6.05;2.47;;;;;;;14.53;62.97;98640.81;4485988;31;20120;-65
2023/05/29 01:10:45;;;;;;;5.78;2.28;;;;;;;14.34;63.98;98636.69;4485586;32;20155;-65
2023/05/29 01:13:18;;;;;;;4.32;2.37;;;;;;;14.16;64.88;98636.84;4476492;31;20144;-65
2023/05/29 01:15:48;;;;;;;6.15;2.55;;;;;;;14.12;65.25;98632.06;4476921;32;20430;-65
2023/05/29 01:18:38;;;;;;;4.85;2.45;;;;;;;14.15;65.44;98637.00;4485566;32;20093;-65
2023/05/29 01:21:18;;;;;;;7.72;2.78;;;;;;;14.16;66.23;98638.66;4484466;32;20104;-65
2023/05/29 01:23:52;;;;;;;9.07;2.78;;;;;;;14.10;66.90;98631.41;4485457;31;20092;-65
2023/05/29 01:26:40;;;;;;;4.40;2.37;;;;;;;14.08;67.52;98636.00;4485627;32;20140;-65
2023/05/29 01:29:08;;;;;;;5.68;2.60;;;;;;;14.06;68.07;98630.06;4485610;31;20414;-65
2023/05/29 01:31:37;;;;;;;6.68;2.72;;;;;;;14.05;69.19;98626.63;4484387;32;20100;-65
2023/05/29 01:34:04;;;;;;;5.60;2.47;;;;;;;13.98;70.48;98631.69;4485283;31;20541;-65
2023/05/29 01:36:32;;;;;;;11.10;3.00;;;;;;;13.94;71.37;98633.00;4485402;32;20084;-65
2023/05/29 01:39:00;;;;;;;7.05;2.78;;;;;;;13.88;72.63;98625.75;4485255;31;20176;-65
2023/05/29 01:41:28;;;;;;;5.90;2.70;;;;;;;13.84;73.38;98625.25;4485220;31;20122;-65
2023/05/29 01:43:58;;;;;;;9.68;3.40;;;;;;;13.88;74.09;98625.75;4485166;31;20122;-65
2023/05/29 01:46:25;;;;;;;4.43;2.60;;;;;;;13.90;74.91;98626.44;4485287;31;20148;-65
2023/05/29 01:48:54;;;;;;;6.28;3.00;;;;;;;13.95;75.79;98618.88;4485089;32;20135;-65
2023/05/29 01:51:22;;;;;;;6.18;3.40;;;;;;;14.05;77.72;98616.09;4485060;32;20107;-65
2023/05/29 01:53:50;;;;;;;7.28;3.08;;;;;;;14.07;77.55;98614.09;4483805;32;20385;-65
2023/05/29 01:56:17;;;;;;;13.90;3.28;;;;;;;14.05;78.59;98610.81;4485204;32;20118;-65
2023/05/29 01:58:45;;;;;;;8.73;3.75;;;;;;;14.02;79.29;98611.97;4484147;32;20160;-65
2023/05/29 02:01:13;;;;;;;6.40;3.08;;;;;;;14.02;79.72;98609.34;4483015;32;20379;-65
2023/05/29 02:03:41;;;;;;;7.12;3.55;;;;;;;13.98;80.17;98602.72;4485194;32;20095;-65
2023/05/29 02:06:08;;;;;;;7.87;3.20;;;;;;;13.98;80.66;98605.38;4485096;31;20164;-65
2023/05/29 02:08:35;;;;;;;4.78;2.95;;;;;;;13.93;81.24;98601.56;4484992;32;20101;-65
2023/05/29 02:11:02;;;;;;;7.32;3.75;;;;;;;13.88;81.45;98609.97;4485096;32;20124;-65
2023/05/29 02:13:30;;;;;;;7.30;2.95;;;;;;;13.81;81.73;98601.06;4473964;31;20118;-65
2023/05/29 02:15:57;;;;;;;7.90;3.58;;;;;;;13.76;81.10;98603.34;4477611;32;20197;-65
2023/05/29 02:18:25;;;;;;;4.97;2.80;;;;;;;13.75;81.13;98599.91;4485010;31;20168;-65
2023/05/29 02:20:52;;;;;;;6.32;3.45;;;;;;;13.66;81.19;98596.44;4484975;32;20096;-65
2023/05/29 02:23:20;;;;;;;3.92;2.65;;;;;;;13.69;80.84;98599.72;4484890;31;20151;-65
2023/05/29 02:25:47;;;;;;;7.00;3.45;;;;;;;13.73;81.19;98601.88;4484959;31;20514;-65
2023/05/29 02:28:14;;;;;;;5.87;2.85;;;;;;;13.77;82.04;98594.47;4485061;31;20092;-65
2023/05/29 02:30:42;;;;;;;8.60;3.53;;;;;;;13.87;83.49;98599.59;4485001;32;20100;-65
2023/05/29 02:33:09;;;;;;;5.57;3.40;;;;;;;13.97;83.96;98602.91;4484864;32;20087;-65
2023/05/29 02:35:36;;;;;;;9.23;4.00;;;;;;;14.03;83.99;98599.59;4484751;31;20153;-65
2023/05/29 02:38:04;;;;;;;7.65;3.80;;;;;;;14.07;84.42;98600.13;4484623;32;20112;-66
2023/05/29 02:40:31;;;;;;;8.90;3.60;;;;;;;14.08;84.62;98592.06;4484864;31;20085;-65
2023/05/29 02:42:58;;;;;;;8.18;3.58;;;;;;;14.09;84.37;98590.25;4484870;32;20149;-65
2023/05/29 02:45:25;;;;;;;7.65;3.37;;;;;;;14.05;84.84;98588.91;4483679;32;20110;-65
2023/05/29 02:47:53;;;;;;;7.22;3.12;;;;;;;13.97;85.88;98593.22;4484847;31;20080;-65
2023/05/29 02:50:20;;;;;;;6.95;3.90;;;;;;;13.96;86.13;98588.06;4485107;32;20785;-66
2023/05/29 02:52:48;;;;;;;7.85;3.85;;;;;;;13.96;86.61;98582.81;4484724;32;20089;-65
2023/05/29 02:55:15;;;;;;;7.47;3.67;;;;;;;14.05;86.75;98583.63;4484706;31;20149;-65
2023/05/29 02:57:42;;;;;;;10.18;3.78;;;;;;;14.11;86.99;98588.25;4484564;32;20126;-65
2023/05/29 03:00:11;;;;;;;5.97;3.50;;;;;;;14.18;86.68;98589.25;4484363;32;20084;-65
2023/05/29 03:02:38;;;;;;;8.60;3.70;;;;;;;14.17;86.97;98590.22;4484486;31;20118;-65
2023/05/29 03:05:06;;;;;;;7.82;3.45;;;;;;;14.20;87.25;98587.25;4483138;32;20099;-65
2023/05/29 03:07:34;;;;;;;6.53;3.50;;;;;;;14.21;87.21;98596.81;4484526;31;20116;-65
2023/05/29 03:10:01;;;;;;;6.82;3.47;;;;;;;14.23;87.39;98584.31;4484529;32;20164;-65
2023/05/29 03:12:29;;;;;;;7.18;3.58;;;;;;;14.24;87.41;98583.31;4480686;32;20087;-65
2023/05/29 03:14:57;;;;;;;8.50;3.55;;;;;;;14.26;87.90;98586.62;4472208;32;20505;-65
2023/05/29 03:17:24;;;;;;;9.50;3.95;;;;;;;14.30;87.63;98581.84;4486660;31;20104;-65
2023/05/29 03:19:52;;;;;;;9.10;3.65;;;;;;;14.35;87.56;98580.38;4486556;32;20096;-65
2023/05/29 03:22:20;;;;;;;7.87;3.62;;;;;;;14.33;88.29;98584.97;4486571;32;20088;-65
2023/05/29 03:24:47;;;;;;;8.15;3.92;;;;;;;14.33;88.50;98582.31;4486154;32;20111;-65
2023/05/29 03:27:14;;;;;;;7.15;3.40;;;;;;;14.33;88.55;98584.13;4486202;32;20152;-65
2023/05/29 03:29:42;;;;;;;9.07;3.70;;;;;;;14.35;88.38;98585.63;4486495;32;20726;-65
2023/05/29 03:32:09;;;;;;;8.75;3.25;;;;;;;14.46;88.09;98592.38;4486200;32;20132;-65
2023/05/29 03:34:37;;;;;;;6.12;3.35;;;;;;;14.50;88.25;98596.34;4486158;32;20088;-65
2023/05/29 03:37:05;;;;;;;7.65;3.35;;;;;;;14.59;87.40;98599.75;4486109;32;20138;-65
2023/05/29 03:39:33;;;;;;;7.05;3.80;;;;;;;14.64;87.28;98602.75;4486400;31;20171;-65
2023/05/29 03:42:01;;;;;;;12.18;3.92;;;;;;;14.71;87.22;98597.63;4486303;32;20091;-65
2023/05/29 03:44:30;;;;;;;11.07;4.47;;;;;;;14.81;86.88;98610.66;4485924;31;20135;-65
2023/05/29 03:46:57;;;;;;;6.75;3.78;;;;;;;14.92;86.48;98610.28;4486398;31;20097;-65
2023/05/29 03:49:24;;;;;;;7.22;3.70;;;;;;;14.96;86.70;98619.50;4485946;32;20100;-65
2023/05/29 03:51:52;;;;;;;8.80;3.75;;;;;;;15.06;86.20;98616.66;4486452;31;20115;-65
2023/05/29 03:54:19;;;;;;;6.62;3.75;;;;;;;15.15;85.60;98625.38;4485959;31;20123;-65
2023/05/29 03:56:46;;;;;;;6.28;3.55;;;;;;;15.19;85.39;98626.69;4486124;31;20093;-65
2023/05/29 03:59:15;;;;;;;9.40;3.55;;;;;;;15.18;85.60;98632.97;4486107;31;20115;-65
2023/05/29 04:01:42;;;;;;;6.00;3.78;;;;;;;15.34;84.50;98625.00;4484927;32;20188;-65
2023/05/29 04:04:10;;;;;;;8.07;3.35;;;;;;;15.34;84.34;98621.53;4486024;31;20092;-65
2023/05/29 04:06:38;;;;;;;8.52;3.72;;;;;;;15.47;83.84;98629.69;4486079;31;20104;-65
2023/05/29 04:09:09;;;;;;;6.53;3.62;;;;;;;15.59;83.62;98619.59;4485861;31;20092;-65
2023/05/29 04:11:38;;;;;;;9.13;3.17;;;;;;;15.63;83.44;98617.44;4486018;32;20453;-65
2023/05/29 04:14:05;;;;;;;8.10;3.80;;;;;;;15.70;83.12;98624.50;4455442;32;20093;-65
2023/05/29 04:16:32;;;;;;;8.35;3.10;;;;;;;15.81;83.04;98617.22;4478630;32;20093;-65
2023/05/29 04:19:00;;;;;;;5.53;3.40;;;;;;;15.96;81.64;98616.25;4486023;32;20205;-65
2023/05/29 04:21:28;;;;;;;7.60;3.87;;;;;;;16.01;81.59;98618.38;4486107;32;20592;-65
2023/05/29 04:23:56;;;;;;;6.95;3.47;;;;;;;16.18;80.69;98626.19;4485387;32;20096;-65
2023/05/29 04:26:24;;;;;;;7.28;3.53;;;;;;;16.22;80.80;98614.28;4485992;32;20450;-65
2023/05/29 04:28:57;;;;;;;9.75;3.33;;;;;;;16.24;80.31;98617.56;4486161;32;20084;-65
2023/05/29 04:31:25;;;;;;;9.18;3.60;;;;;;;16.36;79.93;98624.06;4484693;32;20118;-65
2023/05/29 04:33:56;;;;;;;9.57;3.20;;;;;;;16.44;79.48;98629.28;4486039;31;20128;-65
2023/05/29 04:39:17;;;;;;;10.48;3.70;;;;;;;16.68;79.35;98622.97;4485871;32;20119;-65
2023/05/29 04:41:44;;;;;;;8.85;3.65;;;;;;;16.77;79.44;98633.47;4485896;32;20551;-65
2023/05/29 04:44:13;;;;;;;5.75;3.30;;;;;;;16.97;78.90;98634.63;4485800;32;20129;-65
2023/05/29 04:46:43;;;;;;;8.02;3.28;;;;;;;17.13;77.50;98630.94;4485989;31;20171;-65
2023/05/29 04:49:12;;;;;;;7.22;3.47;;;;;;;17.29;77.86;98631.75;4485591;31;20148;-65
2023/05/29 04:51:40;;;;;;;7.30;3.28;;;;;;;17.50;77.03;98633.66;4485893;31;20084;-66
2023/05/29 04:54:09;;;;;;;9.43;3.33;;;;;;;17.64;76.27;98643.41;4485833;31;20127;-65
2023/05/29 04:56:37;;;;;;;5.93;3.22;;;;;;;17.78;74.76;98640.94;4485822;31;20096;-65
2023/05/29 04:59:04;;;;;;;7.37;3.03;;;;;;;17.85;74.92;98640.00;4485778;31;20123;-65
2023/05/29 05:01:33;;;;;;;5.55;3.10;;;;;;;17.94;73.37;98638.09;4485545;32;20207;-65
2023/05/29 05:04:01;;;;;;;6.12;3.47;;;;;;;18.17;72.11;98635.25;4485536;31;20100;-65
2023/05/29 05:06:28;;;;;;;10.85;3.30;;;;;;;18.41;69.72;98638.50;4485667;32;20204;-65
2023/05/29 05:08:55;;;;;;;6.75;3.58;;;;;;;18.56;69.93;98638.44;4485556;32;20097;-65
2023/05/29 05:11:23;;;;;;;6.95;2.85;;;;;;;18.60;68.05;98643.16;4485477;31;20119;-66
2023/05/29 05:13:51;;;;;;;5.75;3.67;;;;;;;18.61;68.57;98642.16;4472556;31;20519;-65
2023/05/29 05:16:18;;;;;;;6.85;3.20;;;;;;;18.70;68.20;98649.97;4480104;32;20138;-65
2023/05/29 05:18:45;;;;;;;7.40;3.40;;;;;;;18.73;67.02;98639.00;4485433;32;20146;-65
2023/05/29 05:21:13;;;;;;;9.02;3.40;;;;;;;18.82;66.62;98647.59;4485367;32;20120;-65
2023/05/29 05:23:40;;;;;;;8.30;3.55;;;;;;;18.87;65.84;98643.41;4485674;32;20096;-65
2023/05/29 05:26:25;;;;;;;5.78;3.30;;;;;;;18.94;65.42;98652.22;4484654;32;20119;-65
2023/05/29 05:28:53;;;;;;;7.03;3.33;;;;;;;19.10;66.38;98658.25;4485471;31;20450;-65
2023/05/29 05:31:22;;;;;;;6.37;3.40;;;;;;;19.22;64.45;98656.69;4485425;31;20122;-65
2023/05/29 05:33:49;;;;;;;7.43;3.80;;;;;;;19.26;64.01;98659.78;4485455;31;20096;-65
2023/05/29 05:36:17;;;;;;;7.50;3.15;;;;;;;19.23;62.47;98654.84;4483246;32;20173;-65
2023/05/29 05:38:44;;;;;;;7.30;2.80;;;;;;;19.38;62.04;98657.38;4485617;31;20153;-65
2023/05/29 05:41:12;;;;;;;8.95;3.17;;;;;;;19.43;60.06;98663.75;4485430;32;20084;-65
2023/05/29 05:43:39;;;;;;;5.50;3.17;;;;;;;19.45;63.28;98666.19;4485499;32;20134;-65
2023/05/29 05:46:07;;;;;;;10.55;3.42;;;;;;;19.49;62.03;98667.44;4485469;32;20123;-65
2023/05/29 05:48:35;;;;;;;6.18;3.35;;;;;;;19.45;62.64;98668.84;4484186;32;20120;-65
2023/05/29 05:51:02;;;;;;;6.55;3.67;;;;;;;19.48;62.73;98663.16;4485087;31;20152;-65
2023/05/29 05:53:30;;;;;;;8.40;3.67;;;;;;;19.51;60.51;98662.75;4485578;31;20100;-65
2023/05/29 05:55:58;;;;;;;7.28;3.72;;;;;;;19.55;63.35;98658.69;4484902;32;20109;-65
2023/05/29 05:58:25;;;;;;;6.45;3.12;;;;;;;19.58;61.15;98662.81;4485615;31;20169;-65
2023/05/29 06:01:14;;;;;;;6.05;3.22;;;;;;;19.70;62.19;98666.53;4484869;31;20088;-65
2023/05/29 06:03:57;;;;;;;7.65;3.20;;;;;;;19.84;60.95;98662.91;4485574;31;20088;-65
2023/05/29 06:06:25;;;;;;;5.87;3.33;;;;;;;20.09;59.82;98669.53;4484931;32;20119;-65
2023/05/29 06:11:58;;;;;;;5.97;3.20;;;;;;;20.02;58.83;98675.66;4484160;31;20145;-65
2023/05/29 06:14:26;;;;;;;8.23;3.62;;;;;;;20.05;59.67;98678.94;4469247;32;20089;-65
2023/05/29 06:16:54;;;;;;;5.70;3.10;;;;;;;20.05;58.06;98682.41;4483795;32;20156;-65
2023/05/29 06:19:21;;;;;;;8.20;3.58;;;;;;;19.95;58.56;98688.09;4485105;31;20123;-65
2023/05/29 06:21:49;;;;;;;6.53;3.05;;;;;;;19.75;58.38;98690.66;4485053;32;20114;-65
2023/05/29 06:24:16;;;;;;;5.20;3.33;;;;;;;19.48;60.30;98689.72;4485236;32;20100;-65
2023/05/29 06:26:44;;;;;;;8.65;3.60;;;;;;;19.57;60.24;98685.06;4485059;32;20096;-66
2023/05/29 06:29:11;;;;;;;6.15;3.45;;;;;;;19.66;62.46;98692.66;4485316;32;20175;-65
2023/05/29 06:31:38;;;;;;;6.60;3.15;;;;;;;19.61;61.50;98699.59;4484940;32;20554;-65
2023/05/29 06:34:07;;;;;;;5.12;3.10;;;;;;;19.93;60.95;98692.81;4485142;32;20111;-65
2023/05/29 06:36:34;;;;;;;11.23;3.60;;;;;;;20.06;59.79;98699.19;4484864;32;20084;-65
2023/05/29 06:39:02;;;;;;;8.57;3.75;;;;;;;20.27;60.13;98699.00;4484977;31;20521;-65
2023/05/29 06:45:20;;;;;;;9.07;3.75;;;;;;;20.15;61.08;98704.13;4484784;32;20113;-65
2023/05/29 06:47:49;;;;;;;8.48;3.40;;;;;;;20.00;62.33;98709.59;4484531;31;20100;-65
2023/05/29 06:50:16;;;;;;;6.12;3.28;;;;;;;20.07;61.48;98709.62;4484755;32;20548;-65
2023/05/29 06:52:43;;;;;;;7.72;3.42;;;;;;;20.29;62.20;98701.50;4484994;32;20147;-65
2023/05/29 06:55:12;;;;;;;8.80;3.30;;;;;;;20.77;61.71;98700.53;4484700;32;20506;-65
2023/05/29 06:57:40;;;;;;;19.70;4.15;;;;;;;20.80;60.72;98703.59;4484814;32;20101;-65
2023/05/29 07:00:10;;;;;;;7.78;3.35;;;;;;;20.93;61.75;98708.13;4484707;32;20108;-65
2023/05/29 07:02:39;;;;;;;9.77;3.67;;;;;;;21.12;59.04;98708.31;4483535;32;20446;-65
2023/05/29 07:05:22;;;;;;;7.57;3.22;;;;;;;21.40;59.63;98703.53;4484749;31;20205;-65
2023/05/29 07:07:58;;;;;;;6.50;3.05;;;;;;;21.22;56.13;98709.50;4484623;32;20093;-65
2023/05/29 07:10:26;;;;;;;8.05;3.40;;;;;;;21.43;57.21;98712.97;4484823;32;20123;-65
2023/05/29 07:12:53;;;;;;;7.07;2.87;;;;;;;21.44;57.79;98712.75;4477297;32;20123;-65
2023/05/29 07:15:21;;;;;;;11.52;3.60;;;;;;;21.51;56.34;98709.28;4473045;32;20115;-65
2023/05/29 07:17:48;;;;;;;7.60;3.55;;;;;;;21.56;56.08;98706.78;4484505;31;20502;-65
2023/05/29 07:20:16;;;;;;;6.72;3.40;;;;;;;21.46;56.60;98707.22;4484610;32;20610;-65
2023/05/29 07:22:44;;;;;;;7.50;3.08;;;;;;;21.41;57.81;98710.50;4484624;31;20112;-65
2023/05/29 07:25:11;;;;;;;8.52;3.10;;;;;;;21.55;56.14;98706.00;4484254;32;20088;-65
2023/05/29 07:27:39;;;;;;;8.43;3.03;;;;;;;21.74;56.59;98709.62;4484199;31;20653;-65
2023/05/29 07:30:07;;;;;;;8.05;3.67;;;;;;;21.97;56.41;98705.63;4484446;32;20559;-65
2023/05/29 07:32:34;;;;;;;8.05;3.22;;;;;;;21.78;57.17;98713.50;4484199;31;20172;-65
2023/05/29 07:35:02;;;;;;;9.82;4.03;;;;;;;21.61;58.18;98715.00;4484295;32;20587;-65
2023/05/29 07:37:30;;;;;;;12.07;3.60;;;;;;;21.84;56.96;98727.03;4483816;31;20164;-66
2023/05/29 07:39:58;;;;;;;7.55;3.62;;;;;;;21.70;56.17;98729.72;4484171;31;20100;-65
2023/05/29 07:42:30;;;;;;;9.68;3.80;;;;;;;21.79;56.91;98731.13;4484171;32;20114;-65
2023/05/29 07:44:58;;;;;;;26.83;4.07;;;;;;;21.66;57.18;98733.03;4484099;31;20449;-65
2023/05/29 07:47:25;;;;;;;7.75;4.45;;;;;;;21.41;58.47;98737.16;4484015;31;20149;-65
2023/05/29 07:49:53;;;;;;;15.63;3.90;;;;;;;21.75;58.84;98743.25;4483959;31;20484;-65
2023/05/29 07:52:21;;;;;;;10.45;4.03;;;;;;;22.06;59.63;98749.72;4483846;31;20154;-65
2023/05/29 07:54:49;;;;;;;7.43;3.50;;;;;;;22.12;58.36;98754.19;4483848;32;20088;-65
2023/05/29 07:57:16;;;;;;;43.03;8.35;;;;;;;22.10;61.21;98750.91;4483901;31;20168;-65
2023/05/29 07:59:43;;;;;;;10.63;4.10;;;;;;;21.83;60.94;98754.72;4485747;31;20119;-65
2023/05/29 08:02:11;;;;;;;7.93;3.45;;;;;;;21.85;59.44;98753.47;4486273;31;20096;-65
2023/05/29 08:04:40;;;;;;;8.40;3.58;;;;;;;21.85;60.17;98747.31;4486236;31;20149;-66
2023/05/29 08:07:08;;;;;;;10.85;3.78;;;;;;;21.96;58.80;98754.66;4484645;32;20108;-65
2023/05/29 08:09:40;;;;;;;11.68;4.05;;;;;;;22.07;58.76;98748.66;4485933;31;20107;-65
2023/05/29 08:12:15;;;;;;;6.93;3.25;;;;;;;21.97;58.56;98748.31;4483903;32;20147;-66
2023/05/29 08:14:45;;;;;;;9.18;3.53;;;;;;;21.93;59.86;98753.22;4470874;32;20530;-65
2023/05/29 08:17:13;;;;;;;9.23;4.00;;;;;;;21.93;60.76;98755.09;4485982;32;20128;-65
2023/05/29 08:19:40;;;;;;;15.68;4.47;;;;;;;21.91;60.20;98752.63;4485942;31;20118;-66
2023/05/29 08:22:07;;;;;;;9.25;3.62;;;;;;;21.60;62.39;98756.00;4485805;31;20088;-66
2023/05/29 08:24:34;;;;;;;11.45;3.90;;;;;;;21.40;67.24;98756.84;4485773;32;20100;-65
2023/05/29 08:27:02;;;;;;;7.40;3.58;;;;;;;21.31;68.90;98752.75;4485787;32;20100;-65
2023/05/29 08:29:29;;;;;;;9.85;4.25;;;;;;;21.29;64.43;98752.16;4485728;31;20104;-65
2023/05/29 08:31:57;;;;;;;9.45;4.20;;;;;;;21.43;65.00;98744.94;4485909;31;20163;-65
2023/05/29 08:34:24;;;;;;;12.48;4.47;;;;;;;21.05;71.32;98751.75;4485748;32;20107;-65
2023/05/29 08:36:51;;;;;;;7.28;4.05;;;;;;;20.80;73.48;98751.53;4485755;31;20724;-66
2023/05/29 08:39:19;;;;;;;11.45;3.95;;;;;;;20.88;70.55;98753.19;4485734;32;20159;-65
2023/05/29 08:42:02;;;;;;;11.65;4.25;;;;;;;20.91;68.48;98753.59;4485769;31;20706;-66
2023/05/29 08:44:32;;;;;;;10.85;3.53;;;;;;;21.13;65.96;98744.59;4484460;32;20157;-65
2023/05/29 08:47:44;;;;;;;10.27;3.97;;;;;;;21.18;64.28;98748.28;4485712;31;20108;-65
2023/05/29 08:50:35;;;;;;;11.98;3.83;;;;;;;21.18;65.06;98742.09;4485820;31;20385;-65
2023/05/29 08:53:03;;;;;;;7.93;3.80;;;;;;;21.25;64.24;98742.94;4484145;32;20524;-66
2023/05/29 08:55:33;;;;;;;11.60;3.65;;;;;;;21.29;64.10;98736.16;4484396;32;20461;-65
2023/05/29 08:58:01;;;;;;;10.10;3.45;;;;;;;21.24;63.03;98742.13;4484227;32;20104;-65
2023/05/29 09:00:29;;;;;;;19.37;4.80;;;;;;;21.27;62.08;98744.37;4485549;31;20092;-65
2023/05/29 09:02:56;;;;;;;9.85;3.40;;;;;;;21.50;66.45;98747.62;4485534;31;20088;-65
2023/05/29 09:05:23;;;;;;;6.70;3.58;;;;;;;21.69;63.72;98744.09;4485480;32;20153;-65
2023/05/29 09:07:51;;;;;;;6.85;3.58;;;;;;;21.84;62.48;98743.84;4484315;32;20160;-65
2023/05/29 09:10:18;;;;;;;6.90;3.58;;;;;;;21.85;61.94;98747.31;4485448;32;20394;-65
2023/05/29 09:12:46;;;;;;;11.10;4.28;;;;;;;21.93;62.24;98749.75;4472346;32;20168;-65
2023/05/29 09:15:23;;;;;;;9.27;3.87;;;;;;;22.00;64.77;98755.88;4462905;32;20092;-65
2023/05/29 09:17:56;;;;;;;9.50;3.78;;;;;;;22.32;65.16;98754.12;4485584;31;20096;-65
2023/05/29 09:20:25;;;;;;;6.57;3.72;;;;;;;22.56;65.91;98758.91;4485839;31;20096;-65
2023/05/29 09:22:58;;;;;;;9.00;4.07;;;;;;;22.52;59.30;98753.19;4485683;31;20088;-65
2023/05/29 09:25:32;;;;;;;8.23;4.10;;;;;;;22.80;58.86;98744.78;4485539;31;20487;-66
2023/05/29 09:28:07;;;;;;;8.77;4.30;;;;;;;22.63;64.12;98743.66;4485378;31;20148;-66
2023/05/29 09:30:35;;;;;;;10.68;4.00;;;;;;;22.76;65.79;98758.78;4485374;31;20119;-66
2023/05/29 09:33:04;;;;;;;9.63;3.78;;;;;;;22.80;66.50;98752.78;4485329;31;20099;-66
2023/05/29 09:35:37;;;;;;;6.35;3.65;;;;;;;23.05;64.07;98757.31;4485332;31;20092;-66
2023/05/29 09:38:06;;;;;;;7.20;3.30;;;;;;;22.76;65.89;98756.91;4485805;31;20115;-66
2023/05/29 09:40:35;;;;;;;14.70;5.03;;;;;;;23.17;65.43;98755.59;4485380;32;20517;-66
2023/05/29 09:43:20;;;;;;;8.50;4.05;;;;;;;23.62;62.35;98751.03;4485247;32;20116;-66
2023/05/29 09:45:49;;;;;;;7.60;4.22;;;;;;;23.78;63.67;98753.13;4485372;32;20099;-66
2023/05/29 09:48:17;;;;;;;8.10;3.25;;;;;;;24.19;60.33;98762.31;4485301;32;20537;-66
2023/05/29 09:50:47;;;;;;;7.32;3.40;;;;;;;23.52;62.39;98755.03;4485166;31;20088;-66
2023/05/29 09:53:25;;;;;;;8.02;3.78;;;;;;;23.88;54.78;98750.78;4485458;31;20112;-66
2023/05/29 09:55:54;;;;;;;7.97;4.10;;;;;;;23.95;55.38;98760.56;4485171;31;20442;-66
2023/05/29 09:58:23;;;;;;;10.18;3.95;;;;;;;23.68;59.22;98760.84;4485218;31;20154;-66
2023/05/29 10:00:51;;;;;;;7.62;4.18;;;;;;;23.66;56.94;98762.94;4482326;31;78731;-66
2023/05/29 10:03:21;;;;;;;7.18;3.45;;;;;;;23.79;55.47;98762.78;4485297;31;20421;-66
2023/05/29 10:05:50;;;;;;;5.90;3.70;;;;;;;24.14;55.49;98764.88;4485053;31;20110;-66
2023/05/29 10:08:19;;;;;;;6.68;4.18;;;;;;;24.36;52.18;98767.88;4485198;31;20104;-66
2023/05/29 10:10:53;;;;;;;10.02;4.12;;;;;;;24.73;51.45;98772.34;4485168;31;20107;-66
2023/05/29 10:13:23;;;;;;;5.85;3.72;;;;;;;24.84;51.19;98774.22;4475164;31;20164;-66
2023/05/29 10:15:52;;;;;;;10.95;4.20;;;;;;;25.17;52.09;98767.50;4476759;32;20110;-66
2023/05/29 10:18:27;;;;;;;10.15;4.20;;;;;;;25.68;52.73;98774.03;4485080;31;20097;-66
2023/05/29 10:20:56;;;;;;;5.15;3.75;;;;;;;25.44;52.87;98767.06;4483042;32;20429;-66
2023/05/29 10:23:25;;;;;;;8.95;4.05;;;;;;;25.72;54.31;98769.00;4484820;31;20092;-66
2023/05/29 10:25:54;;;;;;;8.70;3.80;;;;;;;25.71;52.54;98772.75;4483758;32;20093;-66
2023/05/29 10:28:23;;;;;;;8.35;3.60;;;;;;;25.91;56.18;98763.50;4483746;32;20104;-66
2023/05/29 10:30:54;;;;;;;7.72;3.78;;;;;;;25.52;54.09;98760.53;4484889;31;20437;-66
2023/05/29 10:33:38;;;;;;;8.63;4.18;;;;;;;25.60;52.84;98768.19;4483854;32;20837;-66
2023/05/29 10:36:13;;;;;;;8.05;3.33;;;;;;;25.81;56.58;98761.41;4484918;31;20084;-66
2023/05/29 10:38:41;;;;;;;11.23;4.25;;;;;;;25.41;54.63;98773.72;4483644;32;20104;-66
2023/05/29 10:41:27;;;;;;;8.73;4.12;;;;;;;25.35;54.66;98763.91;4484911;32;20391;-66
2023/05/29 10:43:55;;;;;;;8.90;4.45;;;;;;;24.86;57.22;98771.28;4484942;31;20115;-66
2023/05/29 10:46:43;;;;;;;6.62;4.15;;;;;;;25.35;58.46;98757.75;4484853;31;20068;-66
2023/05/29 10:49:22;;;;;;;12.20;3.83;;;;;;;24.99;50.92;98760.38;4484596;31;20096;-66
2023/05/29 10:51:49;;;;;;;7.93;4.15;;;;;;;24.35;57.15;98760.06;4484849;31;20435;-66
2023/05/29 10:54:21;;;;;;;8.43;3.90;;;;;;;24.49;56.27;98758.84;4484681;31;20084;-66
2023/05/29 10:56:55;;;;;;;7.97;3.72;;;;;;;23.89;58.33;98754.25;4484689;31;20081;-66
2023/05/29 10:59:27;;;;;;;8.63;4.40;;;;;;;23.91;57.98;98758.34;4484466;31;20101;-66
2023/05/29 11:01:55;;;;;;;10.77;3.97;;;;;;;23.29;59.47;98752.22;4484664;31;20561;-66
2023/05/29 11:04:25;;;;;;;8.80;4.12;;;;;;;23.39;58.51;98752.50;4484982;31;20119;-66
2023/05/29 11:06:53;;;;;;;5.93;3.47;;;;;;;23.46;57.81;98753.25;4484525;31;20081;-66
2023/05/29 11:09:30;;;;;;;6.80;4.07;;;;;;;23.16;56.38;98763.81;4484625;32;20183;-66
2023/05/29 11:12:35;;;;;;;12.23;4.22;;;;;;;22.83;58.85;98757.69;4483565;31;20108;-66
2023/05/29 11:15:17;;;;;;;8.85;3.90;;;;;;;22.71;60.76;98751.44;4469948;32;20593;-66
2023/05/29 11:17:47;;;;;;;7.45;3.12;;;;;;;22.85;61.42;98752.94;4484443;31;20084;-67
2023/05/29 11:20:26;;;;;;;10.10;3.70;;;;;;;22.82;61.44;98753.38;4484215;32;20114;-66
2023/05/29 11:23:02;;;;;;;9.48;4.05;;;;;;;23.11;58.03;98750.31;4483067;32;20157;-67
2023/05/29 11:25:34;;;;;;;6.37;3.75;;;;;;;22.70;62.46;98747.09;4484357;32;20103;-65
2023/05/29 11:28:04;;;;;;;8.63;3.85;;;;;;;22.91;58.48;98747.75;4484447;31;20145;-66
2023/05/29 11:30:32;;;;;;;12.27;4.15;;;;;;;23.02;59.64;98750.53;4484130;31;20080;-66
2023/05/29 11:33:01;;;;;;;4.80;3.53;;;;;;;22.71;62.39;98748.75;4483302;32;20134;-65
2023/05/29 11:35:31;;;;;;;10.43;4.18;;;;;;;22.52;60.84;98749.69;4484924;32;20477;-65
2023/05/29 11:38:00;;;;;;;8.13;3.95;;;;;;;22.65;60.33;98741.56;4484982;32;20106;-65
2023/05/29 11:40:36;;;;;;;8.13;3.95;;;;;;;23.01;62.98;98737.41;4486165;31;20416;-65
2023/05/29 11:43:03;;;;;;;13.50;6.05;;;;;;;22.97;63.11;98738.91;4486177;31;20088;-65
2023/05/29 11:45:33;;;;;;;11.25;4.57;;;;;;;23.50;64.06;98737.59;4486102;31;20162;-65
2023/05/29 11:48:02;;;;;;;6.03;3.97;;;;;;;23.24;63.05;98733.31;4486068;31;20114;-65
2023/05/29 11:50:31;;;;;;;11.45;4.80;;;;;;;23.33;62.29;98729.31;4485954;31;20109;-65
2023/05/29 11:53:00;;;;;;;7.35;4.15;;;;;;;23.35;61.85;98730.75;4486016;31;20101;-65